sensor_id;sensor_type;location;lat;lon;timestamp;P1;durP1;ratioP1;P2;durP2;ratioP2
20159;SDS011;50187;50.492;12.134;2022-10-26T00:01:14;3.90;;;3.60;;
20159;SDS011;50187;50.492;12.134;2022-10-26T00:04:00;4.73;;;3.43;;
20159;SDS011;50187;50.492;12.134;2022-10-26T00:06:45;4.57;;;3.23;;
20159;SDS011;50187;50.492;12.134;2022-10-26T00:09:30;3.90;;;3.50;;
20159;SDS011;50187;50.492;12.134;2022-10-26T00:12:15;3.57;;;3.27;;
20159;SDS011;50187;50.492;12.134;2022-10-26T00:15:00;3.57;;;3.27;;
20159;SDS011;50187;50.492;12.134;2022-10-26T00:17:46;4.47;;;3.40;;
20159;SDS011;50187;50.492;12.134;2022-10-26T00:20:32;3.50;;;3.20;;
20159;SDS011;50187;50.492;12.134;2022-10-26T00:23:17;3.90;;;3.60;;
20159;SDS011;50187;50.492;12.134;2022-10-26T00:26:02;3.27;;;3.03;;
20159;SDS011;50187;50.492;12.134;2022-10-26T00:28:48;3.90;;;3.50;;
20159;SDS011;50187;50.492;12.134;2022-10-26T00:31:33;4.33;;;3.37;;
20159;SDS011;50187;50.492;12.134;2022-10-26T00:34:18;4.10;;;3.40;;
20159;SDS011;50187;50.492;12.134;2022-10-26T00:37:03;3.57;;;3.27;;
20159;SDS011;50187;50.492;12.134;2022-10-26T00:39:48;3.30;;;3.00;;
20159;SDS011;50187;50.492;12.134;2022-10-26T00:42:33;3.17;;;2.87;;
20159;SDS011;50187;50.492;12.134;2022-10-26T00:45:23;3.10;;;2.80;;
20159;SDS011;50187;50.492;12.134;2022-10-26T00:48:16;4.80;;;3.30;;
20159;SDS011;50187;50.492;12.134;2022-10-26T00:51:09;3.20;;;2.90;;
20159;SDS011;50187;50.492;12.134;2022-10-26T00:53:59;3.20;;;2.90;;
20159;SDS011;50187;50.492;12.134;2022-10-26T00:56:49;3.43;;;3.13;;
20159;SDS011;50187;50.492;12.134;2022-10-26T00:59:35;3.13;;;2.83;;
20159;SDS011;50187;50.492;12.134;2022-10-26T01:02:20;3.50;;;3.00;;
20159;SDS011;50187;50.492;12.134;2022-10-26T01:05:06;2.93;;;2.73;;
20159;SDS011;50187;50.492;12.134;2022-10-26T01:07:51;3.43;;;3.03;;
20159;SDS011;50187;50.492;12.134;2022-10-26T01:10:38;3.30;;;3.00;;
20159;SDS011;50187;50.492;12.134;2022-10-26T01:13:25;3.67;;;3.37;;
20159;SDS011;50187;50.492;12.134;2022-10-26T01:16:30;3.13;;;2.70;;
20159;SDS011;50187;50.492;12.134;2022-10-26T01:22:37;3.20;;;2.90;;
20159;SDS011;50187;50.492;12.134;2022-10-26T01:25:38;2.93;;;2.73;;
20159;SDS011;50187;50.492;12.134;2022-10-26T01:28:31;2.83;;;2.63;;
20159;SDS011;50187;50.492;12.134;2022-10-26T01:31:37;2.73;;;2.53;;
20159;SDS011;50187;50.492;12.134;2022-10-26T01:34:29;3.60;;;2.87;;
20159;SDS011;50187;50.492;12.134;2022-10-26T01:37:21;2.83;;;2.60;;
20159;SDS011;50187;50.492;12.134;2022-10-26T01:40:16;3.33;;;3.03;;
20159;SDS011;50187;50.492;12.134;2022-10-26T01:43:08;2.60;;;2.40;;
20159;SDS011;50187;50.492;12.134;2022-10-26T01:45:57;2.93;;;2.63;;
20159;SDS011;50187;50.492;12.134;2022-10-26T01:48:42;2.67;;;2.47;;
20159;SDS011;50187;50.492;12.134;2022-10-26T01:51:28;2.83;;;2.47;;
20159;SDS011;50187;50.492;12.134;2022-10-26T01:54:15;3.03;;;2.70;;
20159;SDS011;50187;50.492;12.134;2022-10-26T01:57:01;2.57;;;2.37;;
20159;SDS011;50187;50.492;12.134;2022-10-26T02:02:54;2.93;;;2.57;;
20159;SDS011;50187;50.492;12.134;2022-10-26T02:05:51;2.63;;;2.43;;
20159;SDS011;50187;50.492;12.134;2022-10-26T02:08:52;2.83;;;2.60;;
20159;SDS011;50187;50.492;12.134;2022-10-26T02:11:42;2.53;;;2.33;;
20159;SDS011;50187;50.492;12.134;2022-10-26T02:14:35;2.57;;;2.37;;
20159;SDS011;50187;50.492;12.134;2022-10-26T02:17:37;2.70;;;2.50;;
20159;SDS011;50187;50.492;12.134;2022-10-26T02:20:27;2.40;;;2.20;;
20159;SDS011;50187;50.492;12.134;2022-10-26T02:23:17;2.10;;;2.00;;
20159;SDS011;50187;50.492;12.134;2022-10-26T02:26:06;2.27;;;2.07;;
20159;SDS011;50187;50.492;12.134;2022-10-26T02:28:57;2.40;;;2.20;;
20159;SDS011;50187;50.492;12.134;2022-10-26T02:31:47;2.33;;;2.23;;
20159;SDS011;50187;50.492;12.134;2022-10-26T02:34:33;3.00;;;2.40;;
20159;SDS011;50187;50.492;12.134;2022-10-26T02:37:22;2.80;;;2.60;;
20159;SDS011;50187;50.492;12.134;2022-10-26T02:40:10;2.90;;;2.37;;
20159;SDS011;50187;50.492;12.134;2022-10-26T02:43:02;2.17;;;1.97;;
20159;SDS011;50187;50.492;12.134;2022-10-26T02:45:51;2.70;;;2.17;;
20159;SDS011;50187;50.492;12.134;2022-10-26T02:48:41;2.30;;;2.10;;
20159;SDS011;50187;50.492;12.134;2022-10-26T02:51:41;2.67;;;2.10;;
20159;SDS011;50187;50.492;12.134;2022-10-26T02:54:34;1.97;;;1.87;;
20159;SDS011;50187;50.492;12.134;2022-10-26T02:57:35;2.13;;;1.97;;
20159;SDS011;50187;50.492;12.134;2022-10-26T03:00:24;2.17;;;1.97;;
20159;SDS011;50187;50.492;12.134;2022-10-26T03:03:09;2.90;;;1.70;;
20159;SDS011;50187;50.492;12.134;2022-10-26T03:05:55;2.07;;;1.97;;
20159;SDS011;50187;50.492;12.134;2022-10-26T03:08:40;2.00;;;1.90;;
20159;SDS011;50187;50.492;12.134;2022-10-26T03:11:25;1.70;;;1.60;;
20159;SDS011;50187;50.492;12.134;2022-10-26T03:14:10;2.20;;;1.97;;
20159;SDS011;50187;50.492;12.134;2022-10-26T03:16:55;2.10;;;2.00;;
20159;SDS011;50187;50.492;12.134;2022-10-26T03:19:39;2.17;;;1.97;;
20159;SDS011;50187;50.492;12.134;2022-10-26T03:22:24;2.63;;;2.23;;
20159;SDS011;50187;50.492;12.134;2022-10-26T03:25:09;1.73;;;1.63;;
20159;SDS011;50187;50.492;12.134;2022-10-26T03:27:55;2.30;;;2.10;;
20159;SDS011;50187;50.492;12.134;2022-10-26T03:30:45;2.27;;;2.17;;
20159;SDS011;50187;50.492;12.134;2022-10-26T03:33:29;2.40;;;2.20;;
20159;SDS011;50187;50.492;12.134;2022-10-26T03:36:15;2.13;;;2.00;;
20159;SDS011;50187;50.492;12.134;2022-10-26T03:39:00;1.90;;;1.80;;
20159;SDS011;50187;50.492;12.134;2022-10-26T03:41:45;1.90;;;1.80;;
20159;SDS011;50187;50.492;12.134;2022-10-26T03:44:32;2.07;;;1.97;;
20159;SDS011;50187;50.492;12.134;2022-10-26T03:47:17;1.97;;;1.87;;
20159;SDS011;50187;50.492;12.134;2022-10-26T03:50:02;2.20;;;2.10;;
20159;SDS011;50187;50.492;12.134;2022-10-26T03:52:47;1.77;;;1.67;;
20159;SDS011;50187;50.492;12.134;2022-10-26T03:55:33;1.80;;;1.70;;
20159;SDS011;50187;50.492;12.134;2022-10-26T03:58:18;1.83;;;1.73;;
20159;SDS011;50187;50.492;12.134;2022-10-26T04:01:03;1.60;;;1.50;;
20159;SDS011;50187;50.492;12.134;2022-10-26T04:03:49;2.07;;;1.97;;
20159;SDS011;50187;50.492;12.134;2022-10-26T04:06:34;1.97;;;1.77;;
20159;SDS011;50187;50.492;12.134;2022-10-26T04:09:19;1.73;;;1.63;;
20159;SDS011;50187;50.492;12.134;2022-10-26T04:12:05;1.77;;;1.67;;
20159;SDS011;50187;50.492;12.134;2022-10-26T04:14:50;1.37;;;1.37;;
20159;SDS011;50187;50.492;12.134;2022-10-26T04:17:35;1.83;;;1.73;;
20159;SDS011;50187;50.492;12.134;2022-10-26T04:20:20;1.90;;;1.80;;
20159;SDS011;50187;50.492;12.134;2022-10-26T04:23:06;1.80;;;1.70;;
20159;SDS011;50187;50.492;12.134;2022-10-26T04:25:55;1.63;;;1.53;;
20159;SDS011;50187;50.492;12.134;2022-10-26T04:28:39;1.70;;;1.53;;
20159;SDS011;50187;50.492;12.134;2022-10-26T04:31:25;1.70;;;1.60;;
20159;SDS011;50187;50.492;12.134;2022-10-26T04:34:10;2.40;;;1.97;;
20159;SDS011;50187;50.492;12.134;2022-10-26T04:36:56;2.03;;;1.90;;
20159;SDS011;50187;50.492;12.134;2022-10-26T04:39:41;1.23;;;1.23;;
20159;SDS011;50187;50.492;12.134;2022-10-26T04:42:26;1.70;;;1.60;;
20159;SDS011;50187;50.492;12.134;2022-10-26T04:45:12;1.73;;;1.40;;
20159;SDS011;50187;50.492;12.134;2022-10-26T04:48:02;1.33;;;1.30;;
20159;SDS011;50187;50.492;12.134;2022-10-26T04:50:50;1.60;;;1.33;;
20159;SDS011;50187;50.492;12.134;2022-10-26T04:53:35;1.87;;;1.77;;
20159;SDS011;50187;50.492;12.134;2022-10-26T04:56:20;1.50;;;1.40;;
20159;SDS011;50187;50.492;12.134;2022-10-26T04:59:04;1.53;;;1.43;;
20159;SDS011;50187;50.492;12.134;2022-10-26T05:01:49;1.60;;;1.50;;
20159;SDS011;50187;50.492;12.134;2022-10-26T05:04:35;1.60;;;1.50;;
20159;SDS011;50187;50.492;12.134;2022-10-26T05:07:20;1.50;;;1.40;;
20159;SDS011;50187;50.492;12.134;2022-10-26T05:10:05;1.60;;;1.50;;
20159;SDS011;50187;50.492;12.134;2022-10-26T05:12:51;1.20;;;1.20;;
20159;SDS011;50187;50.492;12.134;2022-10-26T05:15:38;1.80;;;1.70;;
20159;SDS011;50187;50.492;12.134;2022-10-26T05:18:22;1.60;;;1.50;;
20159;SDS011;50187;50.492;12.134;2022-10-26T05:21:08;1.53;;;1.43;;
20159;SDS011;50187;50.492;12.134;2022-10-26T05:23:53;1.50;;;1.40;;
20159;SDS011;50187;50.492;12.134;2022-10-26T05:26:38;1.50;;;1.40;;
20159;SDS011;50187;50.492;12.134;2022-10-26T05:29:23;1.47;;;1.40;;
20159;SDS011;50187;50.492;12.134;2022-10-26T05:32:09;1.50;;;1.40;;
20159;SDS011;50187;50.492;12.134;2022-10-26T05:34:53;1.77;;;1.53;;
20159;SDS011;50187;50.492;12.134;2022-10-26T05:37:38;1.63;;;1.53;;
20159;SDS011;50187;50.492;12.134;2022-10-26T05:40:23;1.53;;;1.43;;
20159;SDS011;50187;50.492;12.134;2022-10-26T05:43:09;1.37;;;1.33;;
20159;SDS011;50187;50.492;12.134;2022-10-26T05:45:54;1.67;;;1.57;;
20159;SDS011;50187;50.492;12.134;2022-10-26T05:48:39;1.60;;;1.50;;
20159;SDS011;50187;50.492;12.134;2022-10-26T05:51:24;1.97;;;1.60;;
20159;SDS011;50187;50.492;12.134;2022-10-26T05:54:09;1.50;;;1.40;;
20159;SDS011;50187;50.492;12.134;2022-10-26T05:56:57;2.73;;;1.83;;
20159;SDS011;50187;50.492;12.134;2022-10-26T05:59:43;5.23;;;2.10;;
20159;SDS011;50187;50.492;12.134;2022-10-26T06:02:31;4.00;;;2.00;;
20159;SDS011;50187;50.492;12.134;2022-10-26T06:05:26;3.00;;;2.20;;
20159;SDS011;50187;50.492;12.134;2022-10-26T06:08:13;4.33;;;2.60;;
20159;SDS011;50187;50.492;12.134;2022-10-26T06:10:58;2.60;;;2.37;;
20159;SDS011;50187;50.492;12.134;2022-10-26T06:13:44;5.07;;;2.70;;
20159;SDS011;50187;50.492;12.134;2022-10-26T06:16:45;2.57;;;2.33;;
20159;SDS011;50187;50.492;12.134;2022-10-26T06:20:02;2.47;;;2.37;;
20159;SDS011;50187;50.492;12.134;2022-10-26T06:22:57;2.50;;;2.17;;
20159;SDS011;50187;50.492;12.134;2022-10-26T06:29:00;2.30;;;2.10;;
20159;SDS011;50187;50.492;12.134;2022-10-26T06:32:01;3.23;;;2.10;;
20159;SDS011;50187;50.492;12.134;2022-10-26T06:34:47;3.17;;;1.93;;
20159;SDS011;50187;50.492;12.134;2022-10-26T06:37:34;3.70;;;1.80;;
20159;SDS011;50187;50.492;12.134;2022-10-26T06:40:21;5.10;;;2.03;;
20159;SDS011;50187;50.492;12.134;2022-10-26T06:43:11;2.43;;;2.13;;
20159;SDS011;50187;50.492;12.134;2022-10-26T06:48:57;3.60;;;2.33;;
20159;SDS011;50187;50.492;12.134;2022-10-26T06:51:52;4.03;;;1.87;;
20159;SDS011;50187;50.492;12.134;2022-10-26T06:54:47;1.70;;;1.60;;
20159;SDS011;50187;50.492;12.134;2022-10-26T06:57:36;2.00;;;1.70;;
20159;SDS011;50187;50.492;12.134;2022-10-26T07:00:23;2.33;;;1.70;;
20159;SDS011;50187;50.492;12.134;2022-10-26T07:03:11;7.07;;;1.77;;
20159;SDS011;50187;50.492;12.134;2022-10-26T07:05:56;2.40;;;1.73;;
20159;SDS011;50187;50.492;12.134;2022-10-26T07:08:41;1.60;;;1.50;;
20159;SDS011;50187;50.492;12.134;2022-10-26T07:11:27;2.17;;;1.60;;
20159;SDS011;50187;50.492;12.134;2022-10-26T07:14:12;1.40;;;1.30;;
20159;SDS011;50187;50.492;12.134;2022-10-26T07:16:57;2.47;;;1.77;;
20159;SDS011;50187;50.492;12.134;2022-10-26T07:19:42;1.63;;;1.47;;
20159;SDS011;50187;50.492;12.134;2022-10-26T07:22:28;1.77;;;1.67;;
20159;SDS011;50187;50.492;12.134;2022-10-26T07:25:13;2.80;;;1.67;;
20159;SDS011;50187;50.492;12.134;2022-10-26T07:27:58;1.90;;;1.80;;
20159;SDS011;50187;50.492;12.134;2022-10-26T07:30:44;1.90;;;1.70;;
20159;SDS011;50187;50.492;12.134;2022-10-26T07:33:29;1.80;;;1.70;;
20159;SDS011;50187;50.492;12.134;2022-10-26T07:36:14;1.50;;;1.40;;
20159;SDS011;50187;50.492;12.134;2022-10-26T07:38:59;1.60;;;1.40;;
20159;SDS011;50187;50.492;12.134;2022-10-26T07:41:44;1.77;;;1.53;;
20159;SDS011;50187;50.492;12.134;2022-10-26T07:44:30;4.23;;;1.80;;
20159;SDS011;50187;50.492;12.134;2022-10-26T07:47:15;1.90;;;1.50;;
20159;SDS011;50187;50.492;12.134;2022-10-26T07:50:00;1.40;;;1.40;;
20159;SDS011;50187;50.492;12.134;2022-10-26T07:52:47;2.13;;;1.60;;
20159;SDS011;50187;50.492;12.134;2022-10-26T07:55:33;2.73;;;1.40;;
20159;SDS011;50187;50.492;12.134;2022-10-26T07:58:18;1.60;;;1.50;;
20159;SDS011;50187;50.492;12.134;2022-10-26T08:01:08;1.70;;;1.60;;
20159;SDS011;50187;50.492;12.134;2022-10-26T08:03:55;3.23;;;1.70;;
20159;SDS011;50187;50.492;12.134;2022-10-26T08:06:41;2.13;;;1.50;;
20159;SDS011;50187;50.492;12.134;2022-10-26T08:09:26;1.33;;;1.23;;
20159;SDS011;50187;50.492;12.134;2022-10-26T08:12:11;1.47;;;1.37;;
20159;SDS011;50187;50.492;12.134;2022-10-26T08:15:00;1.00;;;1.00;;
20159;SDS011;50187;50.492;12.134;2022-10-26T08:17:44;1.30;;;1.20;;
20159;SDS011;50187;50.492;12.134;2022-10-26T08:20:30;1.60;;;1.50;;
20159;SDS011;50187;50.492;12.134;2022-10-26T08:23:15;3.73;;;1.67;;
20159;SDS011;50187;50.492;12.134;2022-10-26T08:26:00;1.80;;;1.70;;
20159;SDS011;50187;50.492;12.134;2022-10-26T08:28:47;1.60;;;1.50;;
20159;SDS011;50187;50.492;12.134;2022-10-26T08:31:32;1.60;;;1.50;;
20159;SDS011;50187;50.492;12.134;2022-10-26T08:34:17;1.43;;;1.20;;
20159;SDS011;50187;50.492;12.134;2022-10-26T08:37:02;1.40;;;1.30;;
20159;SDS011;50187;50.492;12.134;2022-10-26T08:39:47;1.00;;;1.00;;
20159;SDS011;50187;50.492;12.134;2022-10-26T08:42:39;1.20;;;1.10;;
20159;SDS011;50187;50.492;12.134;2022-10-26T08:45:31;1.33;;;1.30;;
20159;SDS011;50187;50.492;12.134;2022-10-26T08:48:38;1.40;;;1.30;;
20159;SDS011;50187;50.492;12.134;2022-10-26T08:51:35;1.50;;;1.40;;
20159;SDS011;50187;50.492;12.134;2022-10-26T08:57:36;1.63;;;1.33;;
20159;SDS011;50187;50.492;12.134;2022-10-26T09:00:25;1.23;;;1.13;;
20159;SDS011;50187;50.492;12.134;2022-10-26T09:03:13;1.27;;;1.17;;
20159;SDS011;50187;50.492;12.134;2022-10-26T09:06:15;1.30;;;1.30;;
20159;SDS011;50187;50.492;12.134;2022-10-26T09:15:24;1.27;;;1.13;;
20159;SDS011;50187;50.492;12.134;2022-10-26T09:18:34;2.10;;;1.20;;
20159;SDS011;50187;50.492;12.134;2022-10-26T09:22:03;2.20;;;1.33;;
20159;SDS011;50187;50.492;12.134;2022-10-26T09:24:56;2.70;;;1.30;;
20159;SDS011;50187;50.492;12.134;2022-10-26T09:27:55;1.83;;;1.27;;
20159;SDS011;50187;50.492;12.134;2022-10-26T09:30:46;1.53;;;1.40;;
20159;SDS011;50187;50.492;12.134;2022-10-26T09:33:33;1.47;;;1.27;;
20159;SDS011;50187;50.492;12.134;2022-10-26T09:36:22;1.17;;;1.13;;
20159;SDS011;50187;50.492;12.134;2022-10-26T09:39:22;1.13;;;1.13;;
20159;SDS011;50187;50.492;12.134;2022-10-26T09:42:24;1.40;;;1.30;;
20159;SDS011;50187;50.492;12.134;2022-10-26T09:45:21;2.67;;;1.17;;
20159;SDS011;50187;50.492;12.134;2022-10-26T09:48:19;0.90;;;0.90;;
20159;SDS011;50187;50.492;12.134;2022-10-26T09:51:11;2.53;;;1.47;;
20159;SDS011;50187;50.492;12.134;2022-10-26T09:53:56;2.20;;;1.53;;
20159;SDS011;50187;50.492;12.134;2022-10-26T09:56:43;0.90;;;0.90;;
20159;SDS011;50187;50.492;12.134;2022-10-26T09:59:32;1.20;;;1.10;;
20159;SDS011;50187;50.492;12.134;2022-10-26T10:02:38;1.97;;;1.50;;
20159;SDS011;50187;50.492;12.134;2022-10-26T10:08:35;2.50;;;1.23;;
20159;SDS011;50187;50.492;12.134;2022-10-26T10:11:20;1.50;;;1.40;;
20159;SDS011;50187;50.492;12.134;2022-10-26T10:14:06;2.13;;;1.40;;
20159;SDS011;50187;50.492;12.134;2022-10-26T10:17:06;2.17;;;1.30;;
20159;SDS011;50187;50.492;12.134;2022-10-26T10:20:07;4.73;;;1.60;;
20159;SDS011;50187;50.492;12.134;2022-10-26T10:23:01;2.33;;;1.50;;
20159;SDS011;50187;50.492;12.134;2022-10-26T10:25:47;1.27;;;1.17;;
20159;SDS011;50187;50.492;12.134;2022-10-26T10:28:59;2.03;;;1.47;;
20159;SDS011;50187;50.492;12.134;2022-10-26T10:31:45;1.47;;;1.20;;
20159;SDS011;50187;50.492;12.134;2022-10-26T10:34:40;1.40;;;1.30;;
20159;SDS011;50187;50.492;12.134;2022-10-26T10:40:27;3.20;;;1.40;;
20159;SDS011;50187;50.492;12.134;2022-10-26T10:43:15;1.63;;;0.93;;
20159;SDS011;50187;50.492;12.134;2022-10-26T10:46:00;1.57;;;1.47;;
20159;SDS011;50187;50.492;12.134;2022-10-26T10:48:47;1.23;;;1.23;;
20159;SDS011;50187;50.492;12.134;2022-10-26T10:51:37;1.30;;;1.20;;
20159;SDS011;50187;50.492;12.134;2022-10-26T10:54:34;2.03;;;1.20;;
20159;SDS011;50187;50.492;12.134;2022-10-26T10:57:38;2.20;;;1.47;;
20159;SDS011;50187;50.492;12.134;2022-10-26T11:00:51;1.17;;;1.17;;
20159;SDS011;50187;50.492;12.134;2022-10-26T11:03:44;2.67;;;1.70;;
20159;SDS011;50187;50.492;12.134;2022-10-26T11:06:52;2.40;;;1.50;;
20159;SDS011;50187;50.492;12.134;2022-10-26T11:09:44;1.67;;;1.20;;
20159;SDS011;50187;50.492;12.134;2022-10-26T11:12:34;1.27;;;1.17;;
20159;SDS011;50187;50.492;12.134;2022-10-26T11:15:30;1.40;;;1.30;;
20159;SDS011;50187;50.492;12.134;2022-10-26T11:18:20;2.47;;;1.27;;
20159;SDS011;50187;50.492;12.134;2022-10-26T11:21:21;1.23;;;1.13;;
20159;SDS011;50187;50.492;12.134;2022-10-26T11:24:14;2.37;;;1.47;;
20159;SDS011;50187;50.492;12.134;2022-10-26T11:27:16;1.63;;;1.53;;
20159;SDS011;50187;50.492;12.134;2022-10-26T11:32:52;3.33;;;1.30;;
20159;SDS011;50187;50.492;12.134;2022-10-26T11:42:05;1.43;;;1.20;;
20159;SDS011;50187;50.492;12.134;2022-10-26T11:45:16;1.23;;;1.13;;
20159;SDS011;50187;50.492;12.134;2022-10-26T11:48:23;1.83;;;1.50;;
20159;SDS011;50187;50.492;12.134;2022-10-26T11:51:30;1.60;;;1.50;;
20159;SDS011;50187;50.492;12.134;2022-10-26T11:54:37;2.40;;;1.50;;
20159;SDS011;50187;50.492;12.134;2022-10-26T11:57:26;1.90;;;0.97;;
20159;SDS011;50187;50.492;12.134;2022-10-26T12:00:17;3.53;;;1.33;;
20159;SDS011;50187;50.492;12.134;2022-10-26T12:03:09;1.17;;;1.10;;
20159;SDS011;50187;50.492;12.134;2022-10-26T12:05:58;1.33;;;1.10;;
20159;SDS011;50187;50.492;12.134;2022-10-26T12:08:52;4.33;;;1.20;;
20159;SDS011;50187;50.492;12.134;2022-10-26T12:11:49;1.70;;;1.10;;
20159;SDS011;50187;50.492;12.134;2022-10-26T12:14:43;2.50;;;1.20;;
20159;SDS011;50187;50.492;12.134;2022-10-26T12:23:36;1.80;;;1.13;;
20159;SDS011;50187;50.492;12.134;2022-10-26T12:29:30;1.27;;;1.20;;
20159;SDS011;50187;50.492;12.134;2022-10-26T12:35:36;1.20;;;1.10;;
20159;SDS011;50187;50.492;12.134;2022-10-26T12:41:18;2.00;;;1.20;;
20159;SDS011;50187;50.492;12.134;2022-10-26T12:44:30;1.50;;;1.23;;
20159;SDS011;50187;50.492;12.134;2022-10-26T12:56:01;1.40;;;1.30;;
20159;SDS011;50187;50.492;12.134;2022-10-26T13:05:23;1.40;;;1.30;;
20159;SDS011;50187;50.492;12.134;2022-10-26T13:08:41;0.80;;;0.80;;
20159;SDS011;50187;50.492;12.134;2022-10-26T13:11:34;1.27;;;0.90;;
20159;SDS011;50187;50.492;12.134;2022-10-26T13:14:23;0.90;;;0.90;;
20159;SDS011;50187;50.492;12.134;2022-10-26T13:17:19;1.17;;;1.17;;
20159;SDS011;50187;50.492;12.134;2022-10-26T13:20:13;1.60;;;1.50;;
20159;SDS011;50187;50.492;12.134;2022-10-26T13:23:02;1.07;;;1.07;;
20159;SDS011;50187;50.492;12.134;2022-10-26T13:26:17;0.87;;;0.87;;
20159;SDS011;50187;50.492;12.134;2022-10-26T13:29:03;1.33;;;1.10;;
20159;SDS011;50187;50.492;12.134;2022-10-26T13:34:34;0.90;;;0.90;;
20159;SDS011;50187;50.492;12.134;2022-10-26T13:37:24;1.40;;;1.30;;
20159;SDS011;50187;50.492;12.134;2022-10-26T13:40:15;1.30;;;1.17;;
20159;SDS011;50187;50.492;12.134;2022-10-26T13:43:03;1.10;;;1.10;;
20159;SDS011;50187;50.492;12.134;2022-10-26T13:45:53;1.10;;;1.00;;
20159;SDS011;50187;50.492;12.134;2022-10-26T13:48:39;1.10;;;1.10;;
20159;SDS011;50187;50.492;12.134;2022-10-26T13:51:29;1.40;;;1.30;;
20159;SDS011;50187;50.492;12.134;2022-10-26T13:54:41;1.03;;;0.93;;
20159;SDS011;50187;50.492;12.134;2022-10-26T13:57:33;1.33;;;1.00;;
20159;SDS011;50187;50.492;12.134;2022-10-26T14:00:22;1.10;;;1.00;;
20159;SDS011;50187;50.492;12.134;2022-10-26T14:03:11;0.90;;;0.90;;
20159;SDS011;50187;50.492;12.134;2022-10-26T14:05:57;1.23;;;1.13;;
20159;SDS011;50187;50.492;12.134;2022-10-26T14:08:43;1.33;;;0.90;;
20159;SDS011;50187;50.492;12.134;2022-10-26T14:12:04;1.00;;;0.90;;
20159;SDS011;50187;50.492;12.134;2022-10-26T14:14:45;1.30;;;1.13;;
20159;SDS011;50187;50.492;12.134;2022-10-26T14:17:31;1.67;;;1.07;;
20159;SDS011;50187;50.492;12.134;2022-10-26T14:20:17;1.33;;;1.23;;
20159;SDS011;50187;50.492;12.134;2022-10-26T14:23:04;1.23;;;1.13;;
20159;SDS011;50187;50.492;12.134;2022-10-26T14:25:51;0.97;;;0.97;;
20159;SDS011;50187;50.492;12.134;2022-10-26T14:28:45;1.57;;;1.07;;
20159;SDS011;50187;50.492;12.134;2022-10-26T14:31:34;2.03;;;0.90;;
20159;SDS011;50187;50.492;12.134;2022-10-26T14:34:22;1.43;;;1.23;;
20159;SDS011;50187;50.492;12.134;2022-10-26T14:37:08;1.17;;;1.03;;
20159;SDS011;50187;50.492;12.134;2022-10-26T14:39:55;1.20;;;1.10;;
20159;SDS011;50187;50.492;12.134;2022-10-26T14:42:40;0.93;;;0.93;;
20159;SDS011;50187;50.492;12.134;2022-10-26T14:45:31;2.20;;;1.20;;
20159;SDS011;50187;50.492;12.134;2022-10-26T14:48:34;1.83;;;1.10;;
20159;SDS011;50187;50.492;12.134;2022-10-26T14:51:20;0.80;;;0.80;;
20159;SDS011;50187;50.492;12.134;2022-10-26T14:54:23;0.97;;;0.97;;
20159;SDS011;50187;50.492;12.134;2022-10-26T15:00:35;1.07;;;0.97;;
20159;SDS011;50187;50.492;12.134;2022-10-26T15:03:20;0.90;;;0.90;;
20159;SDS011;50187;50.492;12.134;2022-10-26T15:09:28;3.53;;;1.53;;
20159;SDS011;50187;50.492;12.134;2022-10-26T15:12:21;0.97;;;0.97;;
20159;SDS011;50187;50.492;12.134;2022-10-26T15:18:01;1.00;;;1.00;;
20159;SDS011;50187;50.492;12.134;2022-10-26T15:20:49;2.00;;;1.17;;
20159;SDS011;50187;50.492;12.134;2022-10-26T15:23:36;1.00;;;0.90;;
20159;SDS011;50187;50.492;12.134;2022-10-26T15:26:23;0.90;;;0.90;;
20159;SDS011;50187;50.492;12.134;2022-10-26T15:29:32;1.10;;;1.00;;
20159;SDS011;50187;50.492;12.134;2022-10-26T15:32:30;1.97;;;1.37;;
20159;SDS011;50187;50.492;12.134;2022-10-26T15:38:01;1.90;;;0.83;;
20159;SDS011;50187;50.492;12.134;2022-10-26T15:40:46;1.13;;;0.93;;
20159;SDS011;50187;50.492;12.134;2022-10-26T15:43:31;1.13;;;1.03;;
20159;SDS011;50187;50.492;12.134;2022-10-26T15:46:16;1.40;;;1.30;;
20159;SDS011;50187;50.492;12.134;2022-10-26T15:49:02;1.27;;;1.17;;
20159;SDS011;50187;50.492;12.134;2022-10-26T15:51:49;1.10;;;1.07;;
20159;SDS011;50187;50.492;12.134;2022-10-26T15:54:34;0.93;;;0.80;;
20159;SDS011;50187;50.492;12.134;2022-10-26T15:57:19;1.23;;;1.03;;
20159;SDS011;50187;50.492;12.134;2022-10-26T16:00:06;1.00;;;1.00;;
20159;SDS011;50187;50.492;12.134;2022-10-26T16:02:52;2.03;;;1.00;;
20159;SDS011;50187;50.492;12.134;2022-10-26T16:05:37;1.90;;;1.20;;
20159;SDS011;50187;50.492;12.134;2022-10-26T16:08:22;1.17;;;1.17;;
20159;SDS011;50187;50.492;12.134;2022-10-26T16:11:11;1.20;;;1.10;;
20159;SDS011;50187;50.492;12.134;2022-10-26T16:13:56;2.17;;;1.03;;
20159;SDS011;50187;50.492;12.134;2022-10-26T16:16:47;2.43;;;1.17;;
20159;SDS011;50187;50.492;12.134;2022-10-26T16:19:32;1.00;;;1.00;;
20159;SDS011;50187;50.492;12.134;2022-10-26T16:22:18;1.40;;;1.23;;
20159;SDS011;50187;50.492;12.134;2022-10-26T16:25:03;1.23;;;1.13;;
20159;SDS011;50187;50.492;12.134;2022-10-26T16:27:48;1.30;;;1.20;;
20159;SDS011;50187;50.492;12.134;2022-10-26T16:30:34;1.10;;;1.00;;
20159;SDS011;50187;50.492;12.134;2022-10-26T16:33:20;1.00;;;0.90;;
20159;SDS011;50187;50.492;12.134;2022-10-26T16:36:06;1.80;;;1.50;;
20159;SDS011;50187;50.492;12.134;2022-10-26T16:38:52;1.40;;;1.30;;
20159;SDS011;50187;50.492;12.134;2022-10-26T16:41:37;1.57;;;0.93;;
20159;SDS011;50187;50.492;12.134;2022-10-26T16:44:23;1.40;;;1.30;;
20159;SDS011;50187;50.492;12.134;2022-10-26T16:47:08;1.30;;;1.20;;
20159;SDS011;50187;50.492;12.134;2022-10-26T16:49:54;1.30;;;1.20;;
20159;SDS011;50187;50.492;12.134;2022-10-26T16:52:39;1.67;;;1.10;;
20159;SDS011;50187;50.492;12.134;2022-10-26T16:55:25;2.80;;;1.30;;
20159;SDS011;50187;50.492;12.134;2022-10-26T16:58:10;1.60;;;1.50;;
20159;SDS011;50187;50.492;12.134;2022-10-26T17:00:55;1.53;;;1.30;;
20159;SDS011;50187;50.492;12.134;2022-10-26T17:03:40;1.10;;;1.10;;
20159;SDS011;50187;50.492;12.134;2022-10-26T17:06:25;1.77;;;1.40;;
20159;SDS011;50187;50.492;12.134;2022-10-26T17:09:10;1.37;;;1.27;;
20159;SDS011;50187;50.492;12.134;2022-10-26T17:11:55;1.53;;;1.37;;
20159;SDS011;50187;50.492;12.134;2022-10-26T17:14:45;1.17;;;1.07;;
20159;SDS011;50187;50.492;12.134;2022-10-26T17:17:30;1.73;;;1.33;;
20159;SDS011;50187;50.492;12.134;2022-10-26T17:20:15;1.17;;;1.10;;
20159;SDS011;50187;50.492;12.134;2022-10-26T17:23:01;1.63;;;1.50;;
20159;SDS011;50187;50.492;12.134;2022-10-26T17:25:46;2.73;;;1.37;;
20159;SDS011;50187;50.492;12.134;2022-10-26T17:28:31;1.40;;;1.20;;
20159;SDS011;50187;50.492;12.134;2022-10-26T17:31:16;1.73;;;1.60;;
20159;SDS011;50187;50.492;12.134;2022-10-26T17:34:02;2.17;;;1.20;;
20159;SDS011;50187;50.492;12.134;2022-10-26T17:36:47;2.40;;;1.30;;
20159;SDS011;50187;50.492;12.134;2022-10-26T17:39:31;1.80;;;0.97;;
20159;SDS011;50187;50.492;12.134;2022-10-26T17:42:16;1.27;;;1.20;;
20159;SDS011;50187;50.492;12.134;2022-10-26T17:45:01;1.40;;;1.30;;
20159;SDS011;50187;50.492;12.134;2022-10-26T17:47:47;1.10;;;1.00;;
20159;SDS011;50187;50.492;12.134;2022-10-26T17:50:32;2.10;;;1.40;;
20159;SDS011;50187;50.492;12.134;2022-10-26T17:53:17;1.20;;;1.20;;
20159;SDS011;50187;50.492;12.134;2022-10-26T17:56:06;1.00;;;0.90;;
20159;SDS011;50187;50.492;12.134;2022-10-26T17:58:54;1.93;;;1.17;;
20159;SDS011;50187;50.492;12.134;2022-10-26T18:01:41;1.13;;;1.03;;
20159;SDS011;50187;50.492;12.134;2022-10-26T18:04:27;2.70;;;1.50;;
20159;SDS011;50187;50.492;12.134;2022-10-26T18:07:12;1.30;;;1.20;;